createdAt,value
2023-02-28T00:00:36.926Z,56.64
2023-02-28T00:03:03.927Z,57.38
2023-02-28T00:05:30.568Z,57.62
2023-02-28T00:07:57.296Z,58.14
2023-02-28T00:10:25.345Z,58.18
2023-02-28T00:12:52.776Z,58.22
2023-02-28T00:15:19.678Z,57.88
2023-02-28T00:17:46.836Z,58.85
2023-02-28T00:20:14.407Z,59.39
2023-02-28T00:22:42.304Z,59.49
2023-02-28T00:25:10.204Z,59.33
2023-02-28T00:27:37.182Z,59.92
2023-02-28T00:30:05.539Z,60.30
2023-02-28T00:32:32.019Z,60.34
2023-02-28T00:34:58.451Z,59.90
2023-02-28T00:37:24.922Z,60.60
2023-02-28T00:39:51.369Z,61.03
2023-02-28T00:42:17.908Z,61.37
2023-02-28T00:44:44.365Z,61.28
2023-02-28T00:47:11.825Z,61.47
2023-02-28T00:49:38.496Z,60.85
2023-02-28T00:52:05.056Z,60.20
2023-02-28T00:54:31.504Z,60.22
2023-02-28T00:56:58.080Z,59.72
2023-02-28T00:59:25.253Z,59.18
2023-02-28T01:01:51.754Z,59.41
2023-02-28T01:04:18.447Z,59.17
2023-02-28T01:06:44.992Z,59.19
2023-02-28T01:09:12.235Z,59.76
2023-02-28T01:11:38.777Z,59.70
2023-02-28T01:14:05.439Z,59.47
2023-02-28T01:16:31.986Z,59.29
2023-02-28T01:18:58.721Z,58.89
2023-02-28T01:21:25.172Z,58.99
2023-02-28T01:23:51.664Z,58.62
2023-02-28T01:26:19.762Z,58.90
2023-02-28T01:28:46.380Z,59.18
2023-02-28T01:31:13.238Z,58.81
2023-02-28T01:33:40.268Z,58.55
2023-02-28T01:36:08.690Z,59.17
2023-02-28T01:38:36.048Z,58.82
2023-02-28T01:41:02.754Z,57.62
2023-02-28T01:43:33.916Z,56.69
2023-02-28T01:46:00.408Z,56.20
2023-02-28T01:48:28.744Z,57.00
2023-02-28T01:50:57.108Z,58.08
2023-02-28T01:53:27.534Z,58.08
2023-02-28T01:55:54.880Z,58.74
2023-02-28T01:58:21.665Z,58.93
2023-02-28T02:00:48.894Z,58.98
2023-02-28T02:03:19.881Z,58.55
2023-02-28T02:05:49.295Z,57.96
2023-02-28T02:08:20.824Z,57.29
2023-02-28T02:10:51.215Z,56.09
2023-02-28T02:13:30.001Z,56.92
2023-02-28T02:16:02.652Z,56.87
2023-02-28T02:18:31.918Z,57.10
2023-02-28T02:21:17.349Z,56.73
2023-02-28T02:23:49.844Z,56.90
2023-02-28T02:26:31.696Z,56.19
2023-02-28T02:29:04.271Z,58.30
2023-02-28T02:31:49.531Z,58.58
2023-02-28T02:34:42.482Z,59.35
2023-02-28T02:37:29.917Z,58.99
2023-02-28T02:40:04.647Z,58.31
2023-02-28T02:42:41.704Z,58.95
2023-02-28T02:45:11.388Z,59.94
2023-02-28T02:47:38.791Z,60.78
2023-02-28T02:50:12.862Z,61.45
2023-02-28T02:52:43.146Z,60.95
2023-02-28T02:55:12.499Z,60.16
2023-02-28T02:57:46.962Z,60.20
2023-02-28T03:00:15.527Z,61.76
2023-02-28T03:02:42.171Z,62.76
2023-02-28T03:05:15.138Z,62.71
2023-02-28T03:07:41.718Z,61.68
2023-02-28T03:10:27.063Z,60.69
2023-02-28T03:13:01.477Z,60.53
2023-02-28T03:15:33.795Z,61.19
2023-02-28T03:18:11.172Z,60.56
2023-02-28T03:20:46.238Z,61.61
2023-02-28T03:23:25.332Z,61.44
2023-02-28T03:26:03.061Z,62.14
2023-02-28T03:28:29.759Z,61.65
2023-02-28T03:31:13.601Z,61.98
2023-02-28T03:33:43.048Z,62.31
2023-02-28T03:36:13.457Z,63.45
2023-02-28T03:38:46.082Z,62.80
2023-02-28T03:41:22.042Z,62.06
2023-02-28T03:43:54.550Z,61.82
2023-02-28T03:46:24.022Z,63.26
2023-02-28T03:48:54.636Z,63.99
2023-02-28T03:51:23.945Z,64.28
2023-02-28T03:53:55.498Z,64.52
2023-02-28T03:56:25.650Z,65.05
2023-02-28T03:59:10.733Z,65.15
2023-02-28T04:01:42.435Z,65.48
2023-02-28T04:04:13.088Z,66.60
2023-02-28T04:06:39.952Z,66.36
2023-02-28T04:09:07.302Z,66.51
2023-02-28T04:11:41.333Z,66.71
2023-02-28T04:14:08.997Z,66.88
2023-02-28T04:16:37.936Z,66.42
2023-02-28T04:19:06.246Z,66.07
2023-02-28T04:21:34.270Z,65.12
2023-02-28T04:24:01.758Z,65.99
2023-02-28T04:26:35.382Z,64.96
2023-02-28T04:29:02.446Z,65.81
2023-02-28T04:31:29.579Z,64.85
2023-02-28T04:33:56.256Z,64.47
2023-02-28T04:36:24.167Z,64.62
2023-02-28T04:38:50.957Z,64.81
2023-02-28T04:41:17.827Z,64.47
2023-02-28T04:43:44.453Z,64.82
2023-02-28T04:46:11.454Z,65.42
2023-02-28T04:48:38.829Z,65.70
2023-02-28T04:51:07.425Z,64.75
2023-02-28T04:53:34.059Z,64.36
2023-02-28T04:56:00.511Z,64.30
2023-02-28T04:58:27.049Z,63.80
2023-02-28T05:00:54.010Z,64.34
2023-02-28T05:03:21.779Z,64.48
2023-02-28T05:05:48.436Z,65.84
2023-02-28T05:08:14.937Z,65.87
2023-02-28T05:10:41.422Z,65.65
2023-02-28T05:13:07.851Z,65.85
2023-02-28T05:15:35.727Z,65.40
2023-02-28T05:18:02.418Z,64.63
2023-02-28T05:20:28.908Z,64.92
2023-02-28T05:22:55.375Z,63.51
2023-02-28T05:25:25.318Z,63.01
2023-02-28T05:27:51.909Z,64.44
2023-02-28T05:30:18.505Z,65.01
2023-02-28T05:32:44.985Z,63.65
2023-02-28T05:35:12.382Z,62.92
2023-02-28T05:37:39.702Z,61.74
2023-02-28T05:40:12.664Z,61.12
2023-02-28T05:42:39.196Z,61.81
2023-02-28T05:45:06.005Z,61.20
2023-02-28T05:47:32.510Z,61.00
2023-02-28T05:49:58.975Z,60.94
2023-02-28T05:52:25.463Z,60.68
2023-02-28T05:54:51.946Z,60.46
2023-02-28T05:57:24.314Z,58.05
2023-02-28T05:59:51.464Z,57.89
2023-02-28T06:02:18.517Z,59.00
2023-02-28T06:04:45.337Z,59.11
2023-02-28T06:07:12.208Z,59.32
2023-02-28T06:09:38.957Z,60.05
2023-02-28T06:12:10.759Z,61.04
2023-02-28T06:14:37.332Z,60.54
2023-02-28T06:17:04.607Z,59.96
2023-02-28T06:19:31.528Z,60.64
2023-02-28T06:21:58.261Z,59.22
2023-02-28T06:24:25.829Z,59.67
2023-02-28T06:26:52.293Z,59.64
2023-02-28T06:29:19.361Z,59.21
2023-02-28T06:31:46.433Z,59.66
2023-02-28T06:34:13.453Z,59.85
2023-02-28T06:36:40.577Z,60.26
2023-02-28T06:39:07.011Z,60.07
2023-02-28T06:41:53.643Z,60.82
2023-02-28T06:44:21.054Z,60.58
2023-02-28T06:46:47.670Z,59.90
2023-02-28T06:49:14.238Z,60.40
2023-02-28T06:51:42.572Z,59.43
2023-02-28T06:54:10.617Z,58.86
2023-02-28T06:56:37.146Z,57.64
2023-02-28T06:59:04.390Z,58.01
2023-02-28T07:01:32.937Z,58.44
2023-02-28T07:04:01.022Z,57.75
2023-02-28T07:06:28.214Z,58.20
2023-02-28T07:08:55.094Z,57.95
2023-02-28T07:11:23.487Z,59.31
2023-02-28T07:13:51.854Z,60.44
2023-02-28T07:16:18.533Z,59.13
2023-02-28T07:18:45.507Z,57.22
2023-02-28T07:21:12.106Z,58.47
2023-02-28T07:23:39.472Z,58.46
2023-02-28T07:26:06.948Z,57.85
2023-02-28T07:28:33.427Z,59.28
2023-02-28T07:31:07.157Z,59.84
2023-02-28T07:33:34.938Z,57.37
2023-02-28T07:36:05.451Z,57.13
2023-02-28T07:38:34.197Z,59.45
2023-02-28T07:41:00.666Z,58.88
2023-02-28T07:43:27.167Z,58.43
2023-02-28T07:45:53.682Z,59.37
2023-02-28T07:48:20.158Z,58.76
2023-02-28T07:50:56.330Z,55.61
2023-02-28T07:53:23.306Z,55.82
2023-02-28T07:55:49.991Z,56.77
2023-02-28T07:58:16.493Z,58.33
2023-02-28T08:00:43.024Z,58.01
2023-02-28T08:03:13.967Z,59.09
2023-02-28T08:05:41.193Z,59.34
2023-02-28T08:08:08.164Z,59.76
2023-02-28T08:10:34.684Z,59.77
2023-02-28T08:13:01.181Z,57.76
2023-02-28T08:15:27.797Z,57.41
2023-02-28T08:17:54.537Z,59.26
2023-02-28T08:20:21.019Z,58.45
2023-02-28T08:22:47.797Z,56.23
2023-02-28T08:25:14.297Z,57.90
2023-02-28T08:27:40.772Z,58.06
2023-02-28T08:30:07.602Z,58.89
2023-02-28T08:32:34.386Z,57.24
2023-02-28T08:35:01.100Z,58.72
2023-02-28T08:37:27.686Z,58.91
2023-02-28T08:39:56.405Z,58.82
2023-02-28T08:42:23.462Z,59.02
2023-02-28T08:44:49.924Z,55.85
2023-02-28T08:47:16.436Z,57.59
2023-02-28T08:49:42.946Z,56.38
2023-02-28T08:52:09.621Z,56.17
2023-02-28T08:54:36.374Z,56.56
2023-02-28T08:57:03.409Z,56.66
2023-02-28T08:59:30.044Z,56.52
2023-02-28T09:01:56.521Z,56.51
2023-02-28T09:04:25.174Z,57.15
2023-02-28T09:06:52.140Z,56.57
2023-02-28T09:09:18.588Z,56.39
2023-02-28T09:11:45.075Z,56.30
2023-02-28T09:14:11.664Z,56.75
2023-02-28T09:16:38.417Z,56.77
2023-02-28T09:19:05.035Z,56.92
2023-02-28T09:21:31.723Z,57.27
2023-02-28T09:23:58.362Z,56.99
2023-02-28T09:26:26.661Z,58.13
2023-02-28T09:28:53.510Z,57.91
2023-02-28T09:31:21.954Z,57.57
2023-02-28T09:33:52.380Z,57.45
2023-02-28T09:36:19.467Z,56.43
2023-02-28T09:38:48.753Z,56.84
2023-02-28T09:41:20.893Z,57.78
2023-02-28T09:43:50.349Z,58.17
2023-02-28T09:46:32.735Z,56.61
2023-02-28T09:49:01.608Z,55.23
2023-02-28T09:51:43.456Z,56.01
2023-02-28T09:54:19.896Z,57.38
2023-02-28T09:56:53.235Z,57.71
2023-02-28T09:59:35.055Z,56.85
2023-02-28T10:02:10.313Z,56.26
2023-02-28T10:04:46.799Z,58.12
2023-02-28T10:07:32.203Z,58.15
2023-02-28T10:10:00.171Z,57.52
2023-02-28T10:12:27.812Z,57.55
2023-02-28T10:14:56.143Z,56.25
2023-02-28T10:17:27.825Z,54.67
2023-02-28T10:20:02.248Z,54.59
2023-02-28T10:22:37.068Z,54.35
2023-02-28T10:25:16.490Z,53.85
2023-02-28T10:27:43.028Z,53.57
2023-02-28T10:30:14.716Z,54.92
2023-02-28T10:32:43.408Z,55.64
2023-02-28T10:35:09.864Z,54.33
2023-02-28T10:37:47.047Z,53.76
2023-02-28T10:40:19.338Z,54.18
2023-02-28T10:42:59.334Z,54.00
2023-02-28T10:45:26.489Z,54.17
2023-02-28T10:47:56.425Z,53.39
2023-02-28T10:50:29.254Z,51.70
2023-02-28T10:52:55.950Z,51.87
2023-02-28T10:55:26.252Z,54.25
2023-02-28T10:57:52.937Z,55.20
2023-02-28T11:00:22.605Z,53.00
2023-02-28T11:02:49.762Z,53.60
2023-02-28T11:05:30.026Z,54.06
2023-02-28T11:08:12.354Z,53.06
2023-02-28T11:10:39.383Z,52.91
2023-02-28T11:13:06.517Z,53.03
2023-02-28T11:15:34.230Z,50.86
2023-02-28T11:18:09.747Z,52.57
2023-02-28T11:20:36.483Z,55.01
2023-02-28T11:23:05.172Z,51.31
2023-02-28T11:25:33.824Z,48.33
2023-02-28T11:28:07.215Z,51.18
2023-02-28T11:30:38.784Z,48.32
2023-02-28T11:33:23.646Z,50.78
2023-02-28T11:35:50.866Z,49.54
2023-02-28T11:38:17.534Z,49.75
2023-02-28T11:40:53.101Z,52.17
2023-02-28T11:43:25.593Z,48.93
2023-02-28T11:46:11.135Z,52.02
2023-02-28T11:48:40.635Z,49.75
2023-02-28T11:51:22.860Z,48.56
2023-02-28T11:53:54.254Z,48.88
2023-02-28T11:56:26.706Z,50.30
2023-02-28T11:58:53.120Z,50.07
2023-02-28T12:01:19.579Z,49.68
2023-02-28T12:03:46.028Z,50.35
2023-02-28T12:06:12.505Z,50.70
2023-02-28T12:08:42.017Z,49.86
2023-02-28T12:11:11.563Z,48.91
2023-02-28T12:13:49.224Z,50.83
2023-02-28T12:16:37.195Z,51.09
2023-02-28T12:19:33.026Z,49.29
2023-02-28T12:21:59.432Z,48.67
2023-02-28T12:24:44.670Z,48.24
2023-02-28T12:27:14.283Z,51.42
2023-02-28T12:30:10.165Z,49.71
2023-02-28T12:32:40.510Z,50.68
2023-02-28T12:35:10.097Z,51.90
2023-02-28T12:37:46.771Z,52.16
2023-02-28T12:40:24.161Z,49.80
2023-02-28T12:42:52.628Z,49.38
2023-02-28T12:45:27.152Z,50.37
2023-02-28T12:47:58.546Z,52.87
2023-02-28T12:50:26.641Z,50.01
2023-02-28T12:52:58.132Z,51.31
2023-02-28T12:55:30.827Z,51.19
2023-02-28T12:58:06.488Z,50.98
2023-02-28T13:00:36.130Z,51.60
2023-02-28T13:03:22.801Z,51.18
2023-02-28T13:06:08.070Z,51.37
2023-02-28T13:08:39.051Z,49.16
2023-02-28T13:11:13.116Z,49.56
2023-02-28T13:13:46.448Z,50.83
2023-02-28T13:16:13.088Z,51.93
2023-02-28T13:18:47.225Z,51.91
2023-02-28T13:21:32.094Z,52.00
2023-02-28T13:24:03.582Z,52.50
2023-02-28T13:26:39.306Z,52.31
2023-02-28T13:29:11.721Z,54.11
2023-02-28T13:32:01.047Z,53.65
2023-02-28T13:34:27.911Z,52.83
2023-02-28T13:37:14.313Z,51.76
2023-02-28T13:39:40.743Z,50.62
2023-02-28T13:42:25.928Z,51.25
2023-02-28T13:45:16.213Z,51.80
2023-02-28T13:47:44.620Z,50.74
2023-02-28T13:50:23.212Z,52.64
2023-02-28T13:52:56.273Z,51.82
2023-02-28T13:55:27.965Z,52.45
2023-02-28T13:58:13.930Z,50.79
2023-02-28T14:00:49.418Z,48.65
2023-02-28T14:03:26.845Z,51.89
2023-02-28T14:06:09.585Z,49.79
2023-02-28T14:08:36.170Z,49.06
2023-02-28T14:11:09.641Z,49.83
2023-02-28T14:13:48.181Z,48.17
2023-02-28T14:16:16.314Z,46.34
2023-02-28T14:18:48.964Z,46.70
2023-02-28T14:21:21.068Z,45.14
2023-02-28T14:23:58.211Z,47.21
2023-02-28T14:26:43.570Z,49.67
2023-02-28T14:29:18.895Z,46.50
2023-02-28T14:31:54.549Z,44.87
2023-02-28T14:34:32.819Z,44.90
2023-02-28T14:37:01.293Z,46.45
2023-02-28T14:39:31.763Z,46.66
2023-02-28T14:42:04.095Z,46.35
2023-02-28T14:44:30.997Z,47.60
2023-02-28T14:47:09.789Z,47.94
2023-02-28T14:49:37.804Z,46.12
2023-02-28T14:52:13.108Z,46.06
2023-02-28T14:54:40.384Z,48.34
2023-02-28T14:57:06.873Z,47.00
2023-02-28T14:59:34.999Z,46.39
2023-02-28T15:02:18.057Z,45.63
2023-02-28T15:04:44.589Z,47.62
2023-02-28T15:07:12.289Z,47.11
2023-02-28T15:09:38.778Z,47.58
2023-02-28T15:12:05.703Z,46.93
2023-02-28T15:14:33.243Z,46.65
2023-02-28T15:17:07.044Z,45.95
2023-02-28T15:19:35.743Z,45.33
2023-02-28T15:22:07.796Z,46.16
2023-02-28T15:24:34.277Z,45.95
2023-02-28T15:27:01.884Z,46.73
2023-02-28T15:29:30.063Z,45.79
2023-02-28T15:32:04.421Z,45.60
2023-02-28T15:34:43.042Z,46.36
2023-02-28T15:37:31.024Z,46.90
2023-02-28T15:39:58.229Z,47.52
2023-02-28T15:42:32.399Z,48.67
2023-02-28T15:45:00.642Z,48.94
2023-02-28T15:47:28.365Z,48.99
2023-02-28T15:50:00.308Z,49.60
2023-02-28T15:52:39.649Z,48.49
2023-02-28T15:55:11.028Z,49.32
2023-02-28T15:57:40.661Z,50.17
2023-02-28T16:00:11.736Z,50.44
2023-02-28T16:02:39.031Z,52.27
2023-02-28T16:05:08.555Z,52.81
2023-02-28T16:07:35.898Z,52.79
2023-02-28T16:10:02.888Z,53.74
2023-02-28T16:12:33.926Z,54.17
2023-02-28T16:15:03.822Z,54.78
2023-02-28T16:17:32.276Z,55.05
2023-02-28T16:19:59.107Z,55.07
2023-02-28T16:22:25.786Z,55.98
2023-02-28T16:24:52.389Z,55.97
2023-02-28T16:27:26.024Z,56.67
2023-02-28T16:29:53.272Z,57.17
2023-02-28T16:32:19.835Z,57.73
2023-02-28T16:34:46.359Z,60.02
2023-02-28T16:37:16.854Z,60.62
2023-02-28T16:39:43.577Z,62.93
2023-02-28T16:42:14.313Z,64.08
2023-02-28T16:44:41.239Z,65.03
2023-02-28T16:47:07.739Z,65.90
2023-02-28T16:49:34.276Z,66.29
2023-02-28T16:52:00.787Z,67.32
2023-02-28T16:54:27.566Z,67.64
2023-02-28T16:56:54.270Z,66.95
2023-02-28T16:59:24.002Z,66.63
2023-02-28T17:01:50.846Z,66.50
2023-02-28T17:04:17.434Z,68.20
2023-02-28T17:06:43.912Z,67.60
2023-02-28T17:09:16.928Z,67.55
2023-02-28T17:11:43.433Z,68.27
2023-02-28T17:14:09.923Z,68.56
2023-02-28T17:16:37.452Z,68.54
2023-02-28T17:19:05.930Z,67.71
2023-02-28T17:21:34.013Z,66.86
2023-02-28T17:24:01.105Z,67.27
2023-02-28T17:26:29.236Z,67.47
2023-02-28T17:28:59.614Z,67.79
2023-02-28T17:31:27.052Z,66.88
2023-02-28T17:33:53.968Z,68.00
2023-02-28T17:36:25.418Z,67.25
2023-02-28T17:38:52.497Z,66.94
2023-02-28T17:41:18.997Z,68.25
2023-02-28T17:43:45.602Z,66.87
2023-02-28T17:46:21.259Z,66.21
2023-02-28T17:48:48.261Z,66.73
2023-02-28T17:51:15.598Z,66.63
2023-02-28T17:53:42.304Z,65.30
2023-02-28T17:56:17.172Z,65.71
2023-02-28T17:58:43.886Z,62.48
2023-02-28T18:01:10.573Z,62.28
2023-02-28T18:03:37.205Z,63.35
2023-02-28T18:06:03.979Z,62.20
2023-02-28T18:08:31.667Z,63.22
2023-02-28T18:10:58.112Z,63.66
2023-02-28T18:13:24.558Z,64.44
2023-02-28T18:15:51.146Z,64.64
2023-02-28T18:18:17.738Z,64.36
2023-02-28T18:20:44.273Z,64.75
2023-02-28T18:23:10.761Z,65.36
2023-02-28T18:25:38.782Z,67.22
2023-02-28T18:28:05.636Z,68.63
2023-02-28T18:30:33.298Z,68.97
2023-02-28T18:33:00.196Z,69.46
2023-02-28T18:35:36.299Z,68.14
2023-02-28T18:38:07.590Z,67.23
2023-02-28T18:40:34.213Z,67.10
2023-02-28T18:43:01.261Z,66.30
2023-02-28T18:45:27.897Z,66.98
2023-02-28T18:47:54.446Z,66.46
2023-02-28T18:50:21.004Z,66.47
2023-02-28T18:52:47.466Z,64.61
2023-02-28T18:55:18.651Z,65.40
2023-02-28T18:57:48.211Z,66.61
2023-02-28T19:00:15.941Z,66.82
2023-02-28T19:02:43.004Z,68.32
2023-02-28T19:05:11.655Z,69.10
2023-02-28T19:07:38.380Z,69.92
2023-02-28T19:10:05.177Z,70.27
2023-02-28T19:12:35.477Z,69.36
2023-02-28T19:15:03.072Z,68.42
2023-02-28T19:17:29.603Z,67.75
2023-02-28T19:19:56.148Z,67.62
2023-02-28T19:22:22.690Z,66.70
2023-02-28T19:24:49.890Z,66.65
2023-02-28T19:27:17.783Z,66.31
2023-02-28T19:29:44.211Z,65.70
2023-02-28T19:32:10.808Z,64.88
2023-02-28T19:34:37.272Z,64.62
2023-02-28T19:37:03.727Z,65.28
2023-02-28T19:39:37.720Z,65.08
2023-02-28T19:42:04.238Z,65.20
2023-02-28T19:44:31.251Z,65.36
2023-02-28T19:46:57.729Z,65.52
2023-02-28T19:49:25.408Z,64.66
2023-02-28T19:51:52.595Z,65.16
2023-02-28T19:54:19.026Z,64.32
2023-02-28T19:56:45.574Z,64.84
2023-02-28T19:59:21.156Z,65.95
2023-02-28T20:01:48.905Z,66.06
2023-02-28T20:04:15.354Z,65.34
2023-02-28T20:06:41.832Z,65.37
2023-02-28T20:09:08.272Z,65.58
2023-02-28T20:11:34.732Z,65.38
2023-02-28T20:14:05.279Z,66.71
2023-02-28T20:16:32.607Z,68.46
2023-02-28T20:18:59.351Z,68.60
2023-02-28T20:21:25.817Z,69.26
2023-02-28T20:23:52.378Z,69.06
2023-02-28T20:26:21.820Z,67.97
2023-02-28T20:28:48.389Z,68.38
2023-02-28T20:31:19.720Z,67.95
2023-02-28T20:33:47.002Z,68.32
2023-02-28T20:36:15.559Z,68.23
2023-02-28T20:38:42.316Z,69.21
2023-02-28T20:41:09.185Z,69.36
2023-02-28T20:43:35.645Z,70.39
2023-02-28T20:46:02.985Z,69.50
2023-02-28T20:48:30.603Z,69.20
2023-02-28T20:50:57.950Z,68.67
2023-02-28T20:53:25.409Z,67.92
2023-02-28T20:55:55.205Z,68.54
2023-02-28T20:58:22.378Z,68.54
2023-02-28T21:00:48.900Z,69.01
2023-02-28T21:03:15.400Z,69.78
2023-02-28T21:05:41.836Z,69.31
2023-02-28T21:08:08.311Z,68.73
2023-02-28T21:10:34.757Z,68.08
2023-02-28T21:13:01.177Z,67.97
2023-02-28T21:15:27.685Z,68.53
2023-02-28T21:17:54.125Z,68.55
2023-02-28T21:20:23.498Z,68.82
2023-02-28T21:22:50.032Z,68.45
2023-02-28T21:25:16.847Z,68.79
2023-02-28T21:27:43.409Z,68.74
2023-02-28T21:30:10.303Z,68.83
2023-02-28T21:32:37.065Z,68.16
2023-02-28T21:35:03.585Z,68.00
2023-02-28T21:37:30.028Z,68.53
2023-02-28T21:39:56.563Z,67.94
2023-02-28T21:42:23.149Z,66.78
2023-02-28T21:44:50.269Z,66.82
2023-02-28T21:47:19.048Z,67.06
2023-02-28T21:49:47.186Z,65.79
2023-02-28T21:52:15.503Z,66.24
2023-02-28T21:54:44.107Z,68.59
2023-02-28T21:57:14.996Z,69.57
2023-02-28T21:59:44.248Z,70.29
2023-02-28T22:02:13.026Z,69.55
2023-02-28T22:04:41.470Z,70.18
2023-02-28T22:07:08.312Z,68.62
2023-02-28T22:09:35.871Z,67.32
2023-02-28T22:12:03.792Z,67.68
2023-02-28T22:14:30.781Z,68.39
2023-02-28T22:16:57.537Z,67.09
2023-02-28T22:19:24.345Z,67.90
2023-02-28T22:21:51.623Z,68.19
2023-02-28T22:24:20.570Z,66.98
2023-02-28T22:26:48.458Z,65.71
2023-02-28T22:29:14.951Z,65.16
2023-02-28T22:31:41.579Z,66.28
2023-02-28T22:34:09.298Z,66.55
2023-02-28T22:36:36.200Z,66.10
2023-02-28T22:39:03.068Z,66.30
2023-02-28T22:41:30.145Z,67.30
2023-02-28T22:43:57.898Z,67.72
2023-02-28T22:46:24.843Z,67.28
2023-02-28T22:48:51.842Z,66.46
2023-02-28T22:51:19.985Z,67.25
2023-02-28T22:53:48.032Z,67.05
2023-02-28T22:56:15.803Z,66.99
2023-02-28T22:58:44.259Z,66.88
2023-02-28T23:01:13.272Z,66.80
2023-02-28T23:03:40.187Z,66.67
2023-02-28T23:06:14.100Z,67.55
2023-02-28T23:08:40.906Z,66.47
2023-02-28T23:11:07.346Z,66.63
2023-02-28T23:13:33.885Z,67.00
2023-02-28T23:16:00.495Z,68.29
2023-02-28T23:18:26.960Z,68.60
2023-02-28T23:20:56.600Z,68.23
2023-02-28T23:23:23.660Z,68.56
2023-02-28T23:25:50.139Z,68.23
2023-02-28T23:28:16.696Z,69.28
2023-02-28T23:30:43.189Z,69.47
2023-02-28T23:33:09.755Z,70.14
2023-02-28T23:35:36.306Z,69.27
2023-02-28T23:38:02.840Z,69.11
2023-02-28T23:40:29.326Z,68.68
2023-02-28T23:42:55.942Z,69.73
2023-02-28T23:45:22.405Z,69.81
2023-02-28T23:47:48.824Z,70.20
2023-02-28T23:50:15.494Z,71.24
2023-02-28T23:52:41.949Z,72.08
2023-02-28T23:55:08.667Z,72.64
2023-02-28T23:57:35.205Z,71.72
